sensor_id;sensor_type;location;lat;lon;timestamp;pressure;altitude;pressure_sealevel;temperature;humidity
62038;BME280;47991;42.974;12.082;2022-08-03T00:01:17;97769.89;;;19.75;73.24
62038;BME280;47991;42.974;12.082;2022-08-03T00:03:44;97767.06;;;19.77;73.03
62038;BME280;47991;42.974;12.082;2022-08-03T00:06:12;97768.69;;;19.75;73.17
62038;BME280;47991;42.974;12.082;2022-08-03T00:08:40;97770.16;;;19.71;73.43
62038;BME280;47991;42.974;12.082;2022-08-03T00:11:08;97769.13;;;19.67;73.34
62038;BME280;47991;42.974;12.082;2022-08-03T00:13:35;97766.73;;;19.60;73.46
62038;BME280;47991;42.974;12.082;2022-08-03T00:16:04;97767.50;;;19.56;73.56
62038;BME280;47991;42.974;12.082;2022-08-03T00:18:31;97768.30;;;19.55;73.80
62038;BME280;47991;42.974;12.082;2022-08-03T00:20:59;97763.65;;;19.50;73.94
62038;BME280;47991;42.974;12.082;2022-08-03T00:23:27;97761.63;;;19.45;73.88
62038;BME280;47991;42.974;12.082;2022-08-03T00:25:54;97763.19;;;19.48;73.52
62038;BME280;47991;42.974;12.082;2022-08-03T00:28:22;97762.70;;;19.45;73.84
62038;BME280;47991;42.974;12.082;2022-08-03T00:30:49;97758.10;;;19.41;73.82
62038;BME280;47991;42.974;12.082;2022-08-03T00:33:16;97761.23;;;19.37;74.01
62038;BME280;47991;42.974;12.082;2022-08-03T00:35:44;97762.48;;;19.31;74.23
62038;BME280;47991;42.974;12.082;2022-08-03T00:38:16;97762.70;;;19.25;74.36
62038;BME280;47991;42.974;12.082;2022-08-03T00:40:45;97765.79;;;19.21;74.86
62038;BME280;47991;42.974;12.082;2022-08-03T00:43:12;97764.98;;;19.23;74.86
62038;BME280;47991;42.974;12.082;2022-08-03T00:45:42;97766.63;;;19.28;74.50
62038;BME280;47991;42.974;12.082;2022-08-03T00:48:11;97771.13;;;19.33;74.60
62038;BME280;47991;42.974;12.082;2022-08-03T00:50:41;97766.35;;;19.30;74.53
62038;BME280;47991;42.974;12.082;2022-08-03T00:53:10;97761.23;;;19.29;74.63
62038;BME280;47991;42.974;12.082;2022-08-03T00:55:42;97760.86;;;19.32;74.48
62038;BME280;47991;42.974;12.082;2022-08-03T00:58:10;97761.80;;;19.34;74.48
62038;BME280;47991;42.974;12.082;2022-08-03T01:00:39;97758.85;;;19.43;74.50
62038;BME280;47991;42.974;12.082;2022-08-03T01:03:08;97756.13;;;19.52;74.10
62038;BME280;47991;42.974;12.082;2022-08-03T01:08:46;97759.55;;;19.43;73.76
62038;BME280;47991;42.974;12.082;2022-08-03T01:14:19;97753.25;;;19.44;73.63
62038;BME280;47991;42.974;12.082;2022-08-03T01:17:14;97750.95;;;19.49;73.71
62038;BME280;47991;42.974;12.082;2022-08-03T01:19:52;97750.63;;;19.49;73.71
62038;BME280;47991;42.974;12.082;2022-08-03T01:31:09;97741.66;;;19.37;73.55
62038;BME280;47991;42.974;12.082;2022-08-03T01:33:43;97740.30;;;19.33;73.75
62038;BME280;47991;42.974;12.082;2022-08-03T01:36:16;97737.77;;;19.28;73.84
62038;BME280;47991;42.974;12.082;2022-08-03T01:38:50;97737.80;;;19.19;74.04
62038;BME280;47991;42.974;12.082;2022-08-03T01:41:20;97738.12;;;19.08;74.55
62038;BME280;47991;42.974;12.082;2022-08-03T01:43:48;97738.85;;;19.02;75.17
62038;BME280;47991;42.974;12.082;2022-08-03T01:46:18;97740.04;;;18.95;74.98
62038;BME280;47991;42.974;12.082;2022-08-03T01:48:47;97737.47;;;18.96;75.35
62038;BME280;47991;42.974;12.082;2022-08-03T01:51:17;97738.63;;;19.06;75.48
62038;BME280;47991;42.974;12.082;2022-08-03T01:53:47;97736.29;;;19.20;75.30
62038;BME280;47991;42.974;12.082;2022-08-03T01:56:17;97735.83;;;19.22;75.44
62038;BME280;47991;42.974;12.082;2022-08-03T01:58:47;97735.27;;;19.14;75.29
62038;BME280;47991;42.974;12.082;2022-08-03T02:01:16;97735.52;;;19.10;75.30
62038;BME280;47991;42.974;12.082;2022-08-03T02:03:45;97734.09;;;19.01;75.44
62038;BME280;47991;42.974;12.082;2022-08-03T02:06:14;97734.69;;;19.00;75.49
62038;BME280;47991;42.974;12.082;2022-08-03T02:08:44;97731.29;;;19.00;75.31
62038;BME280;47991;42.974;12.082;2022-08-03T02:11:15;97726.00;;;18.96;75.51
62038;BME280;47991;42.974;12.082;2022-08-03T02:13:43;97725.90;;;19.00;75.61
62038;BME280;47991;42.974;12.082;2022-08-03T02:16:12;97725.92;;;19.05;75.60
62038;BME280;47991;42.974;12.082;2022-08-03T02:18:41;97725.73;;;19.09;76.15
62038;BME280;47991;42.974;12.082;2022-08-03T02:21:09;97726.27;;;19.12;75.86
62038;BME280;47991;42.974;12.082;2022-08-03T02:23:39;97725.97;;;19.22;76.17
62038;BME280;47991;42.974;12.082;2022-08-03T02:26:11;97725.39;;;19.25;76.18
62038;BME280;47991;42.974;12.082;2022-08-03T02:28:45;97724.18;;;19.24;76.44
62038;BME280;47991;42.974;12.082;2022-08-03T02:31:20;97728.40;;;19.26;76.04
62038;BME280;47991;42.974;12.082;2022-08-03T02:33:53;97722.02;;;19.19;76.32
62038;BME280;47991;42.974;12.082;2022-08-03T02:36:27;97717.52;;;19.11;76.29
62038;BME280;47991;42.974;12.082;2022-08-03T02:38:58;97719.86;;;19.08;76.69
62038;BME280;47991;42.974;12.082;2022-08-03T02:41:34;97717.13;;;19.03;76.68
62038;BME280;47991;42.974;12.082;2022-08-03T02:44:07;97718.95;;;19.00;76.52
62038;BME280;47991;42.974;12.082;2022-08-03T02:46:38;97719.02;;;18.96;76.69
62038;BME280;47991;42.974;12.082;2022-08-03T02:49:09;97718.43;;;19.08;76.79
62038;BME280;47991;42.974;12.082;2022-08-03T02:51:37;97713.24;;;19.16;76.17
62038;BME280;47991;42.974;12.082;2022-08-03T02:54:06;97713.94;;;19.08;75.92
62038;BME280;47991;42.974;12.082;2022-08-03T02:56:36;97713.52;;;18.98;76.66
62038;BME280;47991;42.974;12.082;2022-08-03T02:59:05;97717.44;;;18.98;76.69
62038;BME280;47991;42.974;12.082;2022-08-03T03:01:33;97717.66;;;19.06;76.41
62038;BME280;47991;42.974;12.082;2022-08-03T03:04:02;97713.23;;;19.05;76.20
62038;BME280;47991;42.974;12.082;2022-08-03T03:06:29;97714.26;;;18.95;76.60
62038;BME280;47991;42.974;12.082;2022-08-03T03:08:58;97715.65;;;18.90;77.02
62038;BME280;47991;42.974;12.082;2022-08-03T03:11:26;97714.04;;;18.89;77.36
62038;BME280;47991;42.974;12.082;2022-08-03T03:13:56;97715.41;;;18.91;77.42
62038;BME280;47991;42.974;12.082;2022-08-03T03:16:24;97712.95;;;18.93;77.36
62038;BME280;47991;42.974;12.082;2022-08-03T03:18:53;97714.46;;;18.94;77.60
62038;BME280;47991;42.974;12.082;2022-08-03T03:21:22;97716.65;;;18.96;78.02
62038;BME280;47991;42.974;12.082;2022-08-03T03:23:51;97713.10;;;18.99;77.91
62038;BME280;47991;42.974;12.082;2022-08-03T03:26:20;97720.73;;;19.00;78.09
62038;BME280;47991;42.974;12.082;2022-08-03T03:28:48;97717.41;;;19.01;78.11
62038;BME280;47991;42.974;12.082;2022-08-03T03:31:15;97714.50;;;19.02;77.74
62038;BME280;47991;42.974;12.082;2022-08-03T03:33:45;97712.11;;;19.00;77.52
62038;BME280;47991;42.974;12.082;2022-08-03T03:36:12;97717.75;;;18.93;77.83
62038;BME280;47991;42.974;12.082;2022-08-03T03:38:40;97719.45;;;18.86;77.64
62038;BME280;47991;42.974;12.082;2022-08-03T03:41:08;97720.45;;;18.84;77.59
62038;BME280;47991;42.974;12.082;2022-08-03T03:43:36;97719.61;;;18.80;77.81
62038;BME280;47991;42.974;12.082;2022-08-03T03:46:04;97720.02;;;18.74;78.18
62038;BME280;47991;42.974;12.082;2022-08-03T03:48:32;97721.37;;;18.72;78.36
62038;BME280;47991;42.974;12.082;2022-08-03T03:51:00;97728.27;;;18.73;78.86
62038;BME280;47991;42.974;12.082;2022-08-03T03:53:28;97727.55;;;18.77;79.56
62038;BME280;47991;42.974;12.082;2022-08-03T03:55:56;97726.80;;;18.80;79.02
62038;BME280;47991;42.974;12.082;2022-08-03T03:58:23;97732.40;;;18.79;79.79
62038;BME280;47991;42.974;12.082;2022-08-03T04:00:51;97732.90;;;18.80;79.26
62038;BME280;47991;42.974;12.082;2022-08-03T04:03:20;97734.40;;;18.82;79.47
62038;BME280;47991;42.974;12.082;2022-08-03T04:05:47;97732.97;;;18.82;79.22
62038;BME280;47991;42.974;12.082;2022-08-03T04:08:33;97733.08;;;18.83;79.14
62038;BME280;47991;42.974;12.082;2022-08-03T04:11:46;97734.70;;;18.80;79.19
62038;BME280;47991;42.974;12.082;2022-08-03T04:14:27;97739.51;;;18.80;79.09
62038;BME280;47991;42.974;12.082;2022-08-03T04:17:01;97743.14;;;18.94;78.67
62038;BME280;47991;42.974;12.082;2022-08-03T04:19:45;97746.02;;;18.94;78.49
62038;BME280;47991;42.974;12.082;2022-08-03T04:22:18;97743.89;;;18.88;78.47
62038;BME280;47991;42.974;12.082;2022-08-03T04:24:49;97743.23;;;18.87;78.52
62038;BME280;47991;42.974;12.082;2022-08-03T04:27:23;97743.38;;;18.81;79.19
62038;BME280;47991;42.974;12.082;2022-08-03T04:29:53;97745.20;;;18.78;79.14
62038;BME280;47991;42.974;12.082;2022-08-03T04:32:22;97746.39;;;18.82;79.22
62038;BME280;47991;42.974;12.082;2022-08-03T04:34:52;97748.28;;;18.95;79.46
62038;BME280;47991;42.974;12.082;2022-08-03T04:39:56;97747.06;;;19.09;79.26
62038;BME280;47991;42.974;12.082;2022-08-03T04:42:26;97746.95;;;19.13;79.08
62038;BME280;47991;42.974;12.082;2022-08-03T04:44:56;97747.15;;;19.24;79.09
62038;BME280;47991;42.974;12.082;2022-08-03T04:47:24;97750.15;;;19.36;78.78
62038;BME280;47991;42.974;12.082;2022-08-03T04:49:52;97750.95;;;19.43;78.52
62038;BME280;47991;42.974;12.082;2022-08-03T04:52:19;97752.08;;;19.46;78.49
62038;BME280;47991;42.974;12.082;2022-08-03T04:54:47;97753.95;;;19.50;78.49
62038;BME280;47991;42.974;12.082;2022-08-03T04:57:15;97755.77;;;19.60;78.54
62038;BME280;47991;42.974;12.082;2022-08-03T04:59:43;97755.27;;;19.71;78.42
62038;BME280;47991;42.974;12.082;2022-08-03T05:02:11;97760.47;;;19.79;78.31
62038;BME280;47991;42.974;12.082;2022-08-03T05:04:38;97761.83;;;20.07;78.19
62038;BME280;47991;42.974;12.082;2022-08-03T05:07:07;97760.65;;;20.62;77.31
62038;BME280;47991;42.974;12.082;2022-08-03T05:09:35;97761.29;;;20.79;76.66
62038;BME280;47991;42.974;12.082;2022-08-03T05:12:05;97767.85;;;20.96;76.83
62038;BME280;47991;42.974;12.082;2022-08-03T05:14:34;97769.93;;;21.35;75.87
62038;BME280;47991;42.974;12.082;2022-08-03T05:17:04;97771.08;;;21.29;75.92
62038;BME280;47991;42.974;12.082;2022-08-03T05:19:32;97768.70;;;21.62;75.52
62038;BME280;47991;42.974;12.082;2022-08-03T05:22:00;97766.64;;;22.17;74.75
62038;BME280;47991;42.974;12.082;2022-08-03T05:24:27;97771.76;;;22.61;73.74
62038;BME280;47991;42.974;12.082;2022-08-03T05:26:55;97773.20;;;23.03;72.46
62038;BME280;47991;42.974;12.082;2022-08-03T05:29:23;97772.86;;;23.55;71.56
62038;BME280;47991;42.974;12.082;2022-08-03T05:31:51;97766.75;;;24.25;69.80
62038;BME280;47991;42.974;12.082;2022-08-03T05:34:18;97762.85;;;25.13;67.78
62038;BME280;47991;42.974;12.082;2022-08-03T05:36:46;97765.60;;;25.86;65.36
62038;BME280;47991;42.974;12.082;2022-08-03T05:39:14;97764.25;;;26.73;62.97
62038;BME280;47991;42.974;12.082;2022-08-03T05:41:41;97763.52;;;27.59;60.86
62038;BME280;47991;42.974;12.082;2022-08-03T05:44:09;97760.23;;;28.34;59.07
62038;BME280;47991;42.974;12.082;2022-08-03T05:46:37;97758.28;;;28.96;56.68
62038;BME280;47991;42.974;12.082;2022-08-03T05:49:05;97760.21;;;29.61;55.07
62038;BME280;47991;42.974;12.082;2022-08-03T05:51:32;97757.55;;;30.21;54.01
62038;BME280;47991;42.974;12.082;2022-08-03T05:54:00;97759.23;;;30.53;52.05
62038;BME280;47991;42.974;12.082;2022-08-03T05:56:27;97754.16;;;30.97;51.54
62038;BME280;47991;42.974;12.082;2022-08-03T05:58:55;97758.95;;;31.53;49.79
62038;BME280;47991;42.974;12.082;2022-08-03T06:01:22;97757.52;;;32.16;48.80
62038;BME280;47991;42.974;12.082;2022-08-03T06:03:50;97756.62;;;32.70;46.72
62038;BME280;47991;42.974;12.082;2022-08-03T06:06:18;97758.17;;;33.20;46.09
62038;BME280;47991;42.974;12.082;2022-08-03T06:08:45;97755.49;;;33.58;45.30
62038;BME280;47991;42.974;12.082;2022-08-03T06:11:14;97759.34;;;33.92;44.08
62038;BME280;47991;42.974;12.082;2022-08-03T06:13:43;97759.27;;;34.07;43.52
62038;BME280;47991;42.974;12.082;2022-08-03T06:16:10;97764.69;;;34.10;42.75
62038;BME280;47991;42.974;12.082;2022-08-03T06:18:38;97762.77;;;34.12;42.48
62038;BME280;47991;42.974;12.082;2022-08-03T06:21:06;97767.94;;;33.66;44.04
62038;BME280;47991;42.974;12.082;2022-08-03T06:23:33;97766.89;;;33.05;45.36
62038;BME280;47991;42.974;12.082;2022-08-03T06:26:01;97771.42;;;32.64;46.00
62038;BME280;47991;42.974;12.082;2022-08-03T06:28:29;97776.36;;;31.83;44.81
62038;BME280;47991;42.974;12.082;2022-08-03T06:30:56;97776.05;;;30.97;46.45
62038;BME280;47991;42.974;12.082;2022-08-03T06:33:25;97782.80;;;29.90;48.80
62038;BME280;47991;42.974;12.082;2022-08-03T06:35:52;97781.94;;;29.15;50.75
62038;BME280;47991;42.974;12.082;2022-08-03T06:38:19;97782.59;;;28.93;52.60
62038;BME280;47991;42.974;12.082;2022-08-03T06:40:47;97782.02;;;29.09;52.44
62038;BME280;47991;42.974;12.082;2022-08-03T06:43:14;97784.02;;;29.16;52.87
62038;BME280;47991;42.974;12.082;2022-08-03T06:45:41;97788.23;;;29.09;52.61
62038;BME280;47991;42.974;12.082;2022-08-03T06:48:10;97784.71;;;28.85;51.50
62038;BME280;47991;42.974;12.082;2022-08-03T06:50:40;97791.08;;;28.78;52.26
62038;BME280;47991;42.974;12.082;2022-08-03T06:53:07;97794.80;;;28.56;53.30
62038;BME280;47991;42.974;12.082;2022-08-03T06:55:35;97794.30;;;28.37;53.85
62038;BME280;47991;42.974;12.082;2022-08-03T06:58:03;97800.49;;;28.44;53.88
62038;BME280;47991;42.974;12.082;2022-08-03T07:00:30;97802.27;;;28.54;53.61
62038;BME280;47991;42.974;12.082;2022-08-03T07:02:57;97805.08;;;28.62;52.05
62038;BME280;47991;42.974;12.082;2022-08-03T07:05:25;97805.62;;;28.57;52.82
62038;BME280;47991;42.974;12.082;2022-08-03T07:07:56;97806.57;;;28.18;53.69
62038;BME280;47991;42.974;12.082;2022-08-03T07:10:25;97807.59;;;27.97;54.57
62038;BME280;47991;42.974;12.082;2022-08-03T07:12:53;97803.02;;;27.85;53.31
62038;BME280;47991;42.974;12.082;2022-08-03T07:15:21;97805.42;;;27.94;53.06
62038;BME280;47991;42.974;12.082;2022-08-03T07:17:49;97803.27;;;28.00;50.05
62038;BME280;47991;42.974;12.082;2022-08-03T07:20:16;97801.14;;;27.86;49.05
62038;BME280;47991;42.974;12.082;2022-08-03T07:22:44;97808.32;;;27.61;49.19
62038;BME280;47991;42.974;12.082;2022-08-03T07:25:11;97807.99;;;27.55;50.22
62038;BME280;47991;42.974;12.082;2022-08-03T07:27:42;97811.27;;;27.57;50.40
62038;BME280;47991;42.974;12.082;2022-08-03T07:30:11;97810.43;;;27.94;49.74
62038;BME280;47991;42.974;12.082;2022-08-03T07:32:39;97812.18;;;28.33;48.94
62038;BME280;47991;42.974;12.082;2022-08-03T07:35:08;97810.84;;;28.64;48.89
62038;BME280;47991;42.974;12.082;2022-08-03T07:37:39;97799.76;;;28.85;48.60
62038;BME280;47991;42.974;12.082;2022-08-03T07:40:07;97803.17;;;28.98;47.66
62038;BME280;47991;42.974;12.082;2022-08-03T07:42:34;97799.80;;;29.12;45.34
62038;BME280;47991;42.974;12.082;2022-08-03T07:45:02;97803.05;;;29.14;45.94
62038;BME280;47991;42.974;12.082;2022-08-03T07:47:30;97800.27;;;29.27;45.66
62038;BME280;47991;42.974;12.082;2022-08-03T07:49:58;97798.61;;;29.36;44.73
62038;BME280;47991;42.974;12.082;2022-08-03T07:52:25;97803.08;;;29.41;44.46
62038;BME280;47991;42.974;12.082;2022-08-03T07:55:11;97800.66;;;29.45;41.50
62038;BME280;47991;42.974;12.082;2022-08-03T07:57:39;97800.17;;;29.35;41.79
62038;BME280;47991;42.974;12.082;2022-08-03T08:00:15;97803.85;;;29.38;42.11
62038;BME280;47991;42.974;12.082;2022-08-03T08:02:44;97802.36;;;29.47;41.02
62038;BME280;47991;42.974;12.082;2022-08-03T08:05:11;97802.64;;;29.68;40.91
62038;BME280;47991;42.974;12.082;2022-08-03T08:07:39;97800.86;;;29.88;39.94
62038;BME280;47991;42.974;12.082;2022-08-03T08:10:08;97801.79;;;29.95;38.42
62038;BME280;47991;42.974;12.082;2022-08-03T08:12:37;97800.90;;;29.98;38.55
62038;BME280;47991;42.974;12.082;2022-08-03T08:15:06;97801.42;;;30.09;38.64
62038;BME280;47991;42.974;12.082;2022-08-03T08:17:53;97796.63;;;30.17;37.28
62038;BME280;47991;42.974;12.082;2022-08-03T08:20:26;97795.47;;;30.23;37.89
62038;BME280;47991;42.974;12.082;2022-08-03T08:22:58;97796.48;;;30.49;38.40
62038;BME280;47991;42.974;12.082;2022-08-03T08:25:26;97793.81;;;30.64;37.43
62038;BME280;47991;42.974;12.082;2022-08-03T08:27:53;97794.79;;;30.45;36.35
62038;BME280;47991;42.974;12.082;2022-08-03T08:30:22;97792.47;;;30.28;36.36
62038;BME280;47991;42.974;12.082;2022-08-03T08:32:50;97791.63;;;30.37;37.35
62038;BME280;47991;42.974;12.082;2022-08-03T08:35:18;97797.66;;;30.67;37.24
62038;BME280;47991;42.974;12.082;2022-08-03T08:37:46;97791.97;;;30.84;35.78
62038;BME280;47991;42.974;12.082;2022-08-03T08:40:13;97796.52;;;30.84;35.66
62038;BME280;47991;42.974;12.082;2022-08-03T08:42:42;97801.01;;;30.81;35.08
62038;BME280;47991;42.974;12.082;2022-08-03T08:45:11;97801.83;;;30.73;34.74
62038;BME280;47991;42.974;12.082;2022-08-03T08:48:06;97805.25;;;30.82;35.10
62038;BME280;47991;42.974;12.082;2022-08-03T08:50:36;97807.90;;;30.91;34.84
62038;BME280;47991;42.974;12.082;2022-08-03T08:53:06;97808.83;;;31.08;33.76
62038;BME280;47991;42.974;12.082;2022-08-03T08:55:34;97808.96;;;31.26;35.03
62038;BME280;47991;42.974;12.082;2022-08-03T08:58:05;97812.61;;;31.41;34.75
62038;BME280;47991;42.974;12.082;2022-08-03T09:00:32;97811.40;;;31.46;35.11
62038;BME280;47991;42.974;12.082;2022-08-03T09:03:00;97810.53;;;31.72;34.62
62038;BME280;47991;42.974;12.082;2022-08-03T09:05:28;97813.45;;;31.79;33.19
62038;BME280;47991;42.974;12.082;2022-08-03T09:07:59;97813.81;;;31.89;33.01
62038;BME280;47991;42.974;12.082;2022-08-03T09:10:27;97805.40;;;31.57;32.59
62038;BME280;47991;42.974;12.082;2022-08-03T09:12:54;97807.00;;;31.16;34.46
62038;BME280;47991;42.974;12.082;2022-08-03T09:15:24;97807.20;;;31.47;35.01
62038;BME280;47991;42.974;12.082;2022-08-03T09:17:54;97808.21;;;31.76;33.89
62038;BME280;47991;42.974;12.082;2022-08-03T09:20:24;97803.39;;;32.04;33.55
62038;BME280;47991;42.974;12.082;2022-08-03T09:25:26;97803.70;;;31.99;33.14
62038;BME280;47991;42.974;12.082;2022-08-03T09:28:19;97803.17;;;32.04;32.79
62038;BME280;47991;42.974;12.082;2022-08-03T09:30:58;97798.46;;;32.10;32.05
62038;BME280;47991;42.974;12.082;2022-08-03T09:33:26;97797.59;;;32.16;30.48
62038;BME280;47991;42.974;12.082;2022-08-03T09:35:53;97794.73;;;32.11;30.78
62038;BME280;47991;42.974;12.082;2022-08-03T09:38:23;97797.04;;;32.05;30.63
62038;BME280;47991;42.974;12.082;2022-08-03T09:40:55;97798.29;;;31.99;31.11
62038;BME280;47991;42.974;12.082;2022-08-03T09:43:23;97793.04;;;32.02;31.11
62038;BME280;47991;42.974;12.082;2022-08-03T09:46:02;97789.10;;;32.37;29.78
62038;BME280;47991;42.974;12.082;2022-08-03T09:48:30;97786.43;;;32.66;30.69
62038;BME280;47991;42.974;12.082;2022-08-03T09:51:01;97785.25;;;32.67;29.76
62038;BME280;47991;42.974;12.082;2022-08-03T09:53:29;97785.05;;;32.61;29.45
62038;BME280;47991;42.974;12.082;2022-08-03T09:55:59;97785.81;;;32.74;29.85
62038;BME280;47991;42.974;12.082;2022-08-03T09:58:28;97777.19;;;32.91;29.49
62038;BME280;47991;42.974;12.082;2022-08-03T10:01:04;97778.34;;;32.92;30.36
62038;BME280;47991;42.974;12.082;2022-08-03T10:03:36;97781.51;;;32.55;29.91
62038;BME280;47991;42.974;12.082;2022-08-03T10:06:15;97778.59;;;32.44;30.59
62038;BME280;47991;42.974;12.082;2022-08-03T10:08:42;97780.34;;;32.04;31.53
62038;BME280;47991;42.974;12.082;2022-08-03T10:11:10;97776.70;;;32.10;31.41
62038;BME280;47991;42.974;12.082;2022-08-03T10:13:39;97774.18;;;32.47;31.44
62038;BME280;47991;42.974;12.082;2022-08-03T10:16:06;97774.44;;;32.29;30.84
62038;BME280;47991;42.974;12.082;2022-08-03T10:18:34;97773.11;;;31.94;31.56
62038;BME280;47991;42.974;12.082;2022-08-03T10:21:03;97772.14;;;32.00;32.27
62038;BME280;47991;42.974;12.082;2022-08-03T10:23:34;97767.95;;;32.36;31.53
62038;BME280;47991;42.974;12.082;2022-08-03T10:26:06;97761.36;;;32.21;31.76
62038;BME280;47991;42.974;12.082;2022-08-03T10:28:39;97761.80;;;32.29;31.91
62038;BME280;47991;42.974;12.082;2022-08-03T10:31:07;97758.55;;;32.35;32.21
62038;BME280;47991;42.974;12.082;2022-08-03T10:33:38;97753.77;;;32.51;31.91
62038;BME280;47991;42.974;12.082;2022-08-03T10:36:09;97747.52;;;32.64;32.07
62038;BME280;47991;42.974;12.082;2022-08-03T10:38:43;97743.88;;;33.20;31.79
62038;BME280;47991;42.974;12.082;2022-08-03T10:41:14;97740.92;;;33.57;30.64
62038;BME280;47991;42.974;12.082;2022-08-03T10:43:54;97740.36;;;33.38;30.89
62038;BME280;47991;42.974;12.082;2022-08-03T10:46:23;97739.25;;;33.19;31.03
62038;BME280;47991;42.974;12.082;2022-08-03T10:48:51;97739.86;;;32.98;30.72
62038;BME280;47991;42.974;12.082;2022-08-03T10:51:20;97736.66;;;33.10;31.26
62038;BME280;47991;42.974;12.082;2022-08-03T10:53:49;97736.82;;;33.33;30.50
62038;BME280;47991;42.974;12.082;2022-08-03T11:02:05;97726.42;;;34.42;29.47
62038;BME280;47991;42.974;12.082;2022-08-03T11:04:35;97722.55;;;34.79;29.88
62038;BME280;47991;42.974;12.082;2022-08-03T11:07:23;97720.00;;;34.83;28.87
62038;BME280;47991;42.974;12.082;2022-08-03T11:09:55;97717.41;;;34.25;28.60
62038;BME280;47991;42.974;12.082;2022-08-03T11:12:30;97716.45;;;33.88;28.85
62038;BME280;47991;42.974;12.082;2022-08-03T11:15:03;97710.47;;;34.15;29.73
62038;BME280;47991;42.974;12.082;2022-08-03T11:17:32;97709.00;;;34.63;28.88
62038;BME280;47991;42.974;12.082;2022-08-03T11:20:00;97707.08;;;34.89;29.00
62038;BME280;47991;42.974;12.082;2022-08-03T11:22:47;97706.52;;;35.13;28.61
62038;BME280;47991;42.974;12.082;2022-08-03T11:25:15;97710.31;;;35.44;28.63
62038;BME280;47991;42.974;12.082;2022-08-03T11:27:43;97707.53;;;35.64;28.23
62038;BME280;47991;42.974;12.082;2022-08-03T11:30:22;97704.00;;;35.74;28.37
62038;BME280;47991;42.974;12.082;2022-08-03T11:32:56;97697.98;;;35.65;27.17
62038;BME280;47991;42.974;12.082;2022-08-03T11:40:41;97695.55;;;35.59;26.90
62038;BME280;47991;42.974;12.082;2022-08-03T11:46:09;97695.20;;;34.93;27.35
62038;BME280;47991;42.974;12.082;2022-08-03T11:48:48;97689.52;;;34.45;27.38
62038;BME280;47991;42.974;12.082;2022-08-03T11:51:26;97693.43;;;34.45;28.44
62038;BME280;47991;42.974;12.082;2022-08-03T11:56:23;97681.38;;;34.86;27.54
62038;BME280;47991;42.974;12.082;2022-08-03T11:58:53;97680.39;;;35.09;27.31
62038;BME280;47991;42.974;12.082;2022-08-03T12:01:22;97682.11;;;35.37;27.53
62038;BME280;47991;42.974;12.082;2022-08-03T12:03:51;97680.48;;;35.59;26.71
62038;BME280;47991;42.974;12.082;2022-08-03T12:06:19;97679.70;;;35.41;26.03
62038;BME280;47991;42.974;12.082;2022-08-03T12:08:46;97674.54;;;35.21;26.65
62038;BME280;47991;42.974;12.082;2022-08-03T12:11:14;97674.00;;;35.37;26.95
62038;BME280;47991;42.974;12.082;2022-08-03T12:13:44;97668.20;;;35.71;26.82
62038;BME280;47991;42.974;12.082;2022-08-03T12:16:20;97662.36;;;35.90;26.27
62038;BME280;47991;42.974;12.082;2022-08-03T12:18:55;97665.23;;;36.15;26.25
62038;BME280;47991;42.974;12.082;2022-08-03T12:21:23;97658.36;;;36.41;25.26
62038;BME280;47991;42.974;12.082;2022-08-03T12:23:56;97656.70;;;36.64;25.13
62038;BME280;47991;42.974;12.082;2022-08-03T12:26:26;97655.12;;;36.82;24.30
62038;BME280;47991;42.974;12.082;2022-08-03T12:28:54;97654.03;;;36.91;24.42
62038;BME280;47991;42.974;12.082;2022-08-03T12:31:22;97651.19;;;36.90;24.00
62038;BME280;47991;42.974;12.082;2022-08-03T12:34:03;97648.75;;;36.47;24.15
62038;BME280;47991;42.974;12.082;2022-08-03T12:36:33;97651.36;;;36.45;24.09
62038;BME280;47991;42.974;12.082;2022-08-03T12:39:04;97645.66;;;36.55;23.59
62038;BME280;47991;42.974;12.082;2022-08-03T12:41:39;97646.89;;;36.47;22.45
62038;BME280;47991;42.974;12.082;2022-08-03T12:44:08;97644.00;;;36.52;23.63
62038;BME280;47991;42.974;12.082;2022-08-03T12:46:37;97648.42;;;36.74;23.06
62038;BME280;47991;42.974;12.082;2022-08-03T12:49:11;97644.05;;;36.91;23.21
62038;BME280;47991;42.974;12.082;2022-08-03T12:54:17;97642.15;;;37.02;22.41
62038;BME280;47991;42.974;12.082;2022-08-03T12:57:02;97639.52;;;37.16;22.80
62038;BME280;47991;42.974;12.082;2022-08-03T12:59:44;97642.21;;;37.08;21.51
62038;BME280;47991;42.974;12.082;2022-08-03T13:02:19;97636.11;;;36.77;21.52
62038;BME280;47991;42.974;12.082;2022-08-03T13:04:48;97636.80;;;36.97;22.54
62038;BME280;47991;42.974;12.082;2022-08-03T13:07:16;97634.50;;;37.13;21.33
62038;BME280;47991;42.974;12.082;2022-08-03T13:09:52;97634.50;;;37.28;21.42
62038;BME280;47991;42.974;12.082;2022-08-03T13:12:24;97629.24;;;37.46;21.61
62038;BME280;47991;42.974;12.082;2022-08-03T13:14:55;97627.88;;;37.32;20.56
62038;BME280;47991;42.974;12.082;2022-08-03T13:17:23;97628.66;;;37.26;21.39
62038;BME280;47991;42.974;12.082;2022-08-03T13:19:51;97626.21;;;37.35;21.21
62038;BME280;47991;42.974;12.082;2022-08-03T13:22:26;97626.60;;;37.47;21.45
62038;BME280;47991;42.974;12.082;2022-08-03T13:24:57;97624.77;;;37.65;20.90
62038;BME280;47991;42.974;12.082;2022-08-03T13:27:24;97619.59;;;37.84;20.63
62038;BME280;47991;42.974;12.082;2022-08-03T13:29:52;97616.61;;;37.66;19.79
62038;BME280;47991;42.974;12.082;2022-08-03T13:32:20;97614.76;;;37.27;20.01
62038;BME280;47991;42.974;12.082;2022-08-03T13:34:48;97618.09;;;37.51;20.87
62038;BME280;47991;42.974;12.082;2022-08-03T13:37:16;97610.42;;;37.85;20.72
62038;BME280;47991;42.974;12.082;2022-08-03T13:39:43;97607.78;;;38.12;20.45
62038;BME280;47991;42.974;12.082;2022-08-03T13:42:11;97605.54;;;38.40;20.18
62038;BME280;47991;42.974;12.082;2022-08-03T13:44:38;97603.07;;;38.56;19.25